Overview Statistics Trail Chart Weather Telemetry Raw packets
 

This is the latest recevied telemetry packets stored in our database for station/object F5ZMN-P1. If no packets are shown the sender has not sent any telemetry packets the latest 10 day(s).

Telemetry packets is used to share measurements like repeteater parameters, battery voltage, radiation readings (or any other measurements).

<< 1 2 3 4 >>
Time Vbat* Temp* RH* Patm* Lux.*
1788575169 5.09 volts 18.5 C 77 % 1024 hPa 0 %
1788573987 5.08 volts 18.6 C 76 % 1024 hPa 0 %
1788572804 5.09 volts 18.9 C 75 % 1024 hPa 0 %
1788571621 5.09 volts 19.1 C 77 % 1024 hPa 0 %
1788570438 5.08 volts 19.4 C 75 % 1024 hPa 0 %
1788569255 5.08 volts 19.6 C 75 % 1024 hPa 0 %
1788568075 5.08 volts 19.8 C 74 % 1024 hPa 0 %
1788566893 5.08 volts 20 C 76 % 1024 hPa 0 %
1788565711 5.08 volts 20.1 C 76 % 1024 hPa 0 %
1788564529 5.08 volts 20.1 C 79 % 1024 hPa 0 %
1788563346 5.08 volts 20.3 C 80 % 1023 hPa 0 %
1788562165 5.08 volts 20.4 C 80 % 1023 hPa 0 %
1788560983 5.08 volts 20.5 C 79 % 1023 hPa 0 %
1788559802 5.08 volts 20.7 C 78 % 1023 hPa 0 %
1788558620 5.08 volts 20.9 C 76 % 1023 hPa 0 %
1788557439 5.08 volts 21.2 C 74 % 1023 hPa 0 %
1788555077 5.08 volts 22 C 70 % 1023 hPa 0 %
1788553896 5.08 volts 22.5 C 68 % 1023 hPa 0 %
1788552715 5.08 volts 23.2 C 66 % 1022 hPa 0 %
1788551535 5.08 volts 24.3 C 62 % 1022 hPa 0 %
1788550353 5.08 volts 25.1 C 57 % 1022 hPa 0 %
1788549172 5.08 volts 26 C 53 % 1021 hPa 0 %
1788547992 5.08 volts 27 C 50 % 1021 hPa 0 %
1788546811 5.08 volts 27.9 C 47 % 1020 hPa 1 %
1788545630 5.08 volts 28.7 C 45 % 1020 hPa 4 %
*Used Equation Coefficients:
Vbat: 0, 1, 0
Temp: 0, 1, 0
RH: 0, 1, 0
Patm: 0, 1, 0
Lux.: 0, 1, 0

  • The parameter names for the analog channels will be Value1, Value2, Value3 (up to Value5) if station has not sent a PARAM-packet that specifies the parameter names for each analog channel.
  • Each analog value is a decimal number between 000 and 255 (according to APRS specifications). The receiver use the telemetry equation coefficientsto to restore the original sensor values. If no EQNS-packet with equation coefficients is sent we will show the values as is (this corresponds to the equation coefficients a=0, b=1 and c=0).
    The sent equation coefficients is used in the equation: a * value2 + b * value + c.
  • The units for the analog values will not be shown if station has not sent a UNIT-packet specifying what unit's to use.
  • The parameter names for the digital bits will be Bit1, Bit2, Bit3 (up to Bit8) if station has not sent a PARAM-packet that specifies the parameter names for each digital bit.
  • All bit labels will be named "On" if station has not sent a UNIT-packet that specifies the label of each bit.
  • A bit is considered to be On when the bit is 1 if station has not sent a BITS-packet that specifies another "Bit sense" (a BITS-packet specify the state of the bits that match the BIT labels)